createdAt,value
2018-04-18T00:00:32.063Z,12.18
2018-04-18T00:03:01.179Z,15.40
2018-04-18T00:05:30.297Z,14.25
2018-04-18T00:07:59.441Z,14.02
2018-04-18T00:10:28.568Z,12.90
2018-04-18T00:12:58.470Z,20.73
2018-04-18T00:15:27.966Z,19.33
2018-04-18T00:17:57.123Z,20.25
2018-04-18T00:20:26.244Z,12.80
2018-04-18T00:22:55.389Z,14.68
2018-04-18T00:25:24.514Z,16.92
2018-04-18T00:27:53.648Z,14.30
2018-04-18T00:30:23.074Z,16.15
2018-04-18T00:32:52.202Z,11.18
2018-04-18T00:35:21.330Z,17.20
2018-04-18T00:37:50.450Z,15.80
2018-04-18T00:40:19.581Z,12.60
2018-04-18T00:42:49.317Z,15.25
2018-04-18T00:45:18.732Z,14.65
2018-04-18T00:47:47.863Z,16.12
2018-04-18T00:50:17.007Z,13.65
2018-04-18T00:52:47.094Z,14.38
2018-04-18T00:55:16.218Z,14.87
2018-04-18T00:57:45.345Z,14.13
2018-04-18T01:00:14.934Z,13.18
2018-04-18T01:02:44.075Z,13.10
2018-04-18T01:05:13.201Z,16.50
2018-04-18T01:07:42.620Z,12.93
2018-04-18T01:10:11.750Z,14.50
2018-04-18T01:12:40.871Z,11.75
2018-04-18T01:15:10.337Z,15.55
2018-04-18T01:17:39.886Z,16.52
2018-04-18T01:20:09.002Z,15.05
2018-04-18T01:22:38.434Z,16.05
2018-04-18T01:25:07.573Z,12.73
2018-04-18T01:27:36.705Z,20.50
2018-04-18T01:30:06.322Z,18.10
2018-04-18T01:32:35.449Z,15.43
2018-04-18T01:35:04.575Z,14.57
2018-04-18T01:37:34.266Z,16.20
2018-04-18T01:40:03.401Z,20.88
2018-04-18T01:42:32.530Z,14.43
2018-04-18T01:45:02.992Z,14.65
2018-04-18T01:47:32.118Z,17.27
2018-04-18T01:50:01.253Z,12.80
2018-04-18T01:52:30.386Z,13.20
2018-04-18T01:54:59.517Z,13.90
2018-04-18T01:57:28.663Z,16.00
2018-04-18T01:59:58.129Z,16.42
2018-04-18T02:02:27.249Z,15.60
2018-04-18T02:04:56.390Z,14.30
2018-04-18T02:07:25.757Z,18.00
2018-04-18T02:09:54.877Z,15.57
2018-04-18T02:12:23.995Z,21.08
2018-04-18T02:14:53.537Z,15.85
2018-04-18T02:17:22.666Z,14.55
2018-04-18T02:19:51.790Z,14.70
2018-04-18T02:22:20.917Z,19.77
2018-04-18T02:24:50.054Z,15.88
2018-04-18T02:27:19.176Z,24.00
2018-04-18T02:29:48.601Z,19.85
2018-04-18T02:32:18.039Z,17.00
2018-04-18T02:34:47.157Z,18.15
2018-04-18T02:37:16.316Z,18.12
2018-04-18T02:39:45.441Z,14.57
2018-04-18T02:42:14.573Z,20.80
2018-04-18T02:44:44.041Z,19.25
2018-04-18T02:47:13.170Z,19.52
2018-04-18T02:49:42.420Z,20.37
2018-04-18T02:52:11.891Z,19.35
2018-04-18T02:54:41.006Z,13.57
2018-04-18T02:57:10.134Z,17.65
2018-04-18T02:59:39.406Z,18.30
2018-04-18T03:02:08.526Z,14.73
2018-04-18T03:04:37.650Z,21.33
2018-04-18T03:07:07.172Z,19.83
2018-04-18T03:09:36.305Z,22.33
2018-04-18T03:12:05.447Z,18.15
2018-04-18T03:14:34.564Z,20.05
2018-04-18T03:17:03.686Z,15.15
2018-04-18T03:19:32.815Z,19.15
2018-04-18T03:22:02.357Z,24.02
2018-04-18T03:24:31.477Z,18.12
2018-04-18T03:27:00.623Z,21.35
2018-04-18T03:29:29.759Z,19.55
2018-04-18T03:31:58.978Z,19.25
2018-04-18T03:34:28.094Z,16.83
2018-04-18T03:36:57.553Z,17.48
2018-04-18T03:39:26.778Z,19.42
2018-04-18T03:41:55.949Z,22.48
2018-04-18T03:44:25.435Z,18.55
2018-04-18T03:46:54.560Z,16.73
2018-04-18T03:49:23.726Z,18.20
2018-04-18T03:51:53.135Z,22.40
2018-04-18T03:54:22.261Z,19.30
2018-04-18T03:56:51.381Z,20.58
2018-04-18T03:59:20.839Z,20.40
2018-04-18T04:01:50.029Z,20.55
2018-04-18T04:04:19.142Z,20.62
2018-04-18T04:06:48.273Z,21.05
2018-04-18T04:09:17.406Z,18.77
2018-04-18T04:11:46.609Z,18.23
2018-04-18T04:14:16.103Z,17.08
2018-04-18T04:16:50.982Z,17.77
2018-04-18T04:19:26.177Z,18.77
2018-04-18T04:22:01.198Z,18.62
2018-04-18T04:24:36.338Z,25.20
2018-04-18T04:27:05.463Z,20.17
2018-04-18T04:29:34.666Z,20.77
2018-04-18T04:32:04.053Z,18.90
2018-04-18T04:34:33.189Z,20.45
2018-04-18T04:37:02.407Z,18.90
2018-04-18T04:39:31.854Z,22.25
2018-04-18T04:42:01.091Z,23.92
2018-04-18T04:44:30.209Z,16.62
2018-04-18T04:46:59.653Z,19.92
2018-04-18T04:49:28.877Z,18.75
2018-04-18T04:51:58.014Z,24.85
2018-04-18T04:54:27.453Z,18.05
2018-04-18T04:56:56.570Z,17.92
2018-04-18T04:59:25.688Z,21.05
2018-04-18T05:01:55.146Z,21.35
2018-04-18T05:04:24.317Z,24.00
2018-04-18T05:06:53.571Z,20.25
2018-04-18T05:09:22.966Z,24.58
2018-04-18T05:11:52.081Z,23.87
2018-04-18T05:14:21.203Z,18.50
2018-04-18T05:16:50.725Z,22.70
2018-04-18T05:19:19.837Z,18.27
2018-04-18T05:21:48.949Z,21.92
2018-04-18T05:24:18.417Z,21.70
2018-04-18T05:26:47.528Z,19.90
2018-04-18T05:29:16.648Z,17.05
2018-04-18T05:31:45.846Z,23.35
2018-04-18T05:34:14.956Z,19.40
2018-04-18T05:36:44.083Z,16.33
2018-04-18T05:39:13.609Z,19.17
2018-04-18T05:41:42.724Z,21.10
2018-04-18T05:44:11.861Z,21.15
2018-04-18T05:46:41.273Z,17.00
2018-04-18T05:49:10.399Z,24.75
2018-04-18T05:51:39.522Z,19.73
2018-04-18T05:54:08.661Z,21.80
2018-04-18T05:56:37.815Z,18.35
2018-04-18T05:59:06.969Z,14.67
2018-04-18T06:01:36.407Z,20.50
2018-04-18T06:04:05.583Z,17.20
2018-04-18T06:06:35.634Z,18.93
2018-04-18T06:09:05.922Z,15.10
2018-04-18T06:11:35.157Z,18.13
2018-04-18T06:14:04.281Z,17.90
2018-04-18T06:16:33.973Z,19.47
2018-04-18T06:19:03.114Z,18.27
2018-04-18T06:21:32.238Z,17.33
2018-04-18T06:24:01.725Z,16.67
2018-04-18T06:26:30.853Z,18.57
2018-04-18T06:29:00.048Z,15.83
2018-04-18T06:31:29.524Z,16.53
2018-04-18T06:33:58.710Z,18.00
2018-04-18T06:36:27.846Z,16.80
2018-04-18T06:38:57.317Z,15.50
2018-04-18T06:41:26.466Z,18.37
2018-04-18T06:43:55.592Z,21.00
2018-04-18T06:46:25.047Z,20.20
2018-04-18T06:48:54.188Z,16.27
2018-04-18T06:51:23.313Z,14.17
2018-04-18T06:53:52.828Z,18.93
2018-04-18T06:56:21.954Z,15.40
2018-04-18T06:58:51.092Z,16.90
2018-04-18T07:01:20.613Z,22.60
2018-04-18T07:03:49.727Z,16.90
2018-04-18T07:06:18.849Z,17.87
2018-04-18T07:08:48.302Z,20.47
2018-04-18T07:11:17.442Z,17.23
2018-04-18T07:13:46.860Z,19.53
2018-04-18T07:16:16.404Z,19.37
2018-04-18T07:18:45.554Z,15.47
2018-04-18T07:21:14.730Z,15.33
2018-04-18T07:23:44.189Z,17.97
2018-04-18T07:26:13.434Z,18.60
2018-04-18T07:28:42.554Z,17.20
2018-04-18T07:31:12.098Z,17.83
2018-04-18T07:33:41.253Z,19.63
2018-04-18T07:36:10.366Z,14.83
2018-04-18T07:38:39.817Z,15.57
2018-04-18T07:41:08.938Z,18.47
2018-04-18T07:43:38.565Z,14.53
2018-04-18T07:46:08.018Z,14.97
2018-04-18T07:48:37.176Z,20.33
2018-04-18T07:51:06.293Z,21.73
2018-04-18T07:53:35.831Z,17.00
2018-04-18T07:56:04.965Z,13.23
2018-04-18T07:58:34.109Z,14.67
2018-04-18T08:01:03.599Z,17.53
2018-04-18T08:03:33.343Z,19.07
2018-04-18T08:06:02.480Z,16.70
2018-04-18T08:08:31.991Z,18.07
2018-04-18T08:11:01.077Z,16.77
2018-04-18T08:13:30.194Z,17.73
2018-04-18T08:15:59.605Z,16.63
2018-04-18T08:18:28.811Z,15.10
2018-04-18T08:20:57.945Z,18.53
2018-04-18T08:23:27.397Z,17.60
2018-04-18T08:25:56.521Z,15.97
2018-04-18T08:28:25.639Z,15.73
2018-04-18T08:30:54.763Z,14.60
2018-04-18T08:33:23.923Z,16.00
2018-04-18T08:35:53.031Z,21.00
2018-04-18T08:38:22.477Z,15.83
2018-04-18T08:40:51.676Z,14.70
2018-04-18T08:43:20.794Z,16.57
2018-04-18T08:45:50.397Z,20.23
2018-04-18T08:48:19.523Z,15.10
2018-04-18T08:50:48.649Z,15.83
2018-04-18T08:53:18.073Z,12.93
2018-04-18T08:55:47.213Z,17.50
2018-04-18T08:58:16.335Z,13.00
2018-04-18T09:00:45.479Z,13.80
2018-04-18T09:03:14.613Z,12.13
2018-04-18T09:05:43.770Z,13.80
2018-04-18T09:08:12.905Z,15.00
2018-04-18T09:10:42.045Z,16.50
2018-04-18T09:13:11.202Z,14.80
2018-04-18T09:15:40.662Z,14.57
2018-04-18T09:18:09.783Z,12.83
2018-04-18T09:20:38.895Z,14.63
2018-04-18T09:23:08.024Z,15.93
2018-04-18T09:25:38.690Z,16.63
2018-04-18T09:28:08.158Z,15.30
2018-04-18T09:30:37.279Z,14.70
2018-04-18T09:33:06.406Z,15.60
2018-04-18T09:35:36.714Z,12.00
2018-04-18T09:38:05.840Z,13.93
2018-04-18T09:40:34.999Z,13.93
2018-04-18T09:43:04.466Z,14.67
2018-04-18T09:45:33.579Z,16.00
2018-04-18T09:48:02.796Z,10.40
2018-04-18T09:50:32.299Z,13.90
2018-04-18T09:53:01.422Z,10.97
2018-04-18T09:55:30.562Z,9.70
2018-04-18T09:58:00.065Z,14.47
2018-04-18T10:00:35.047Z,11.50
2018-04-18T10:03:05.421Z,10.90
2018-04-18T10:05:34.571Z,8.40
2018-04-18T10:08:03.781Z,10.00
2018-04-18T10:10:34.238Z,8.23
2018-04-18T10:13:03.353Z,8.67
2018-04-18T10:15:32.568Z,9.10
2018-04-18T10:18:01.722Z,11.37
2018-04-18T10:20:30.833Z,10.43
2018-04-18T10:23:00.073Z,8.93
2018-04-18T10:25:29.631Z,10.60
2018-04-18T10:27:58.748Z,8.70
2018-04-18T10:30:27.884Z,10.70
2018-04-18T10:32:57.426Z,11.30
2018-04-18T10:35:26.533Z,7.13
2018-04-18T10:37:55.643Z,9.00
2018-04-18T10:40:25.117Z,7.97
2018-04-18T10:42:54.233Z,7.50
2018-04-18T10:45:23.449Z,5.80
2018-04-18T10:47:53.013Z,7.53
2018-04-18T10:50:22.167Z,6.80
2018-04-18T10:52:51.302Z,8.10
2018-04-18T10:55:20.748Z,7.60
2018-04-18T10:57:49.877Z,5.90
2018-04-18T11:00:19.002Z,5.63
2018-04-18T11:02:48.557Z,6.53
2018-04-18T11:05:17.731Z,9.03
2018-04-18T11:07:46.941Z,9.27
2018-04-18T11:10:16.408Z,6.13
2018-04-18T11:12:45.553Z,9.50
2018-04-18T11:15:14.665Z,6.60
2018-04-18T11:17:44.097Z,7.50
2018-04-18T11:20:13.217Z,5.70
2018-04-18T11:22:42.431Z,8.47
2018-04-18T11:25:11.904Z,7.60
2018-04-18T11:27:41.020Z,9.83
2018-04-18T11:30:10.145Z,7.40
2018-04-18T11:32:39.294Z,9.40
2018-04-18T11:35:08.406Z,12.00
2018-04-18T11:37:37.673Z,11.63
2018-04-18T11:40:07.192Z,10.43
2018-04-18T11:42:36.308Z,10.80
2018-04-18T11:45:05.434Z,8.90
2018-04-18T11:47:34.573Z,6.77
2018-04-18T11:50:03.718Z,5.80
2018-04-18T11:52:32.831Z,9.90
2018-04-18T11:55:01.973Z,8.87
2018-04-18T11:57:31.083Z,10.17
2018-04-18T12:00:00.216Z,10.00
2018-04-18T12:02:29.656Z,10.23
2018-04-18T12:04:58.790Z,9.17
2018-04-18T12:07:27.988Z,4.80
2018-04-18T12:09:57.123Z,7.23
2018-04-18T12:12:26.253Z,7.33
2018-04-18T12:14:55.472Z,5.73
2018-04-18T12:17:24.937Z,8.30
2018-04-18T12:19:54.081Z,5.67
2018-04-18T12:22:23.212Z,5.40
2018-04-18T12:24:52.642Z,5.27
2018-04-18T12:27:21.884Z,8.47
2018-04-18T12:29:51.018Z,9.13
2018-04-18T12:32:20.533Z,5.00
2018-04-18T12:34:49.673Z,10.93
2018-04-18T12:37:18.790Z,8.40
2018-04-18T12:39:48.230Z,3.97
2018-04-18T12:42:17.394Z,8.90
2018-04-18T12:44:46.502Z,8.30
2018-04-18T12:47:15.637Z,7.90
2018-04-18T12:49:44.794Z,9.13
2018-04-18T12:52:13.940Z,6.33
2018-04-18T12:54:43.085Z,6.13
2018-04-18T12:57:12.205Z,7.43
2018-04-18T12:59:41.318Z,8.80
2018-04-18T13:02:10.459Z,11.23
2018-04-18T13:04:39.573Z,8.20
2018-04-18T13:07:08.699Z,5.70
2018-04-18T13:09:37.838Z,7.77
2018-04-18T13:12:07.011Z,7.53
2018-04-18T13:14:36.173Z,12.43
2018-04-18T13:17:05.569Z,9.50
2018-04-18T13:19:34.714Z,9.13
2018-04-18T13:22:03.832Z,11.90
2018-04-18T13:24:33.281Z,8.87
2018-04-18T13:27:02.503Z,9.23
2018-04-18T13:29:31.613Z,9.13
2018-04-18T13:32:01.181Z,7.50
2018-04-18T13:34:30.300Z,8.00
2018-04-18T13:36:59.437Z,11.03
2018-04-18T13:39:28.999Z,9.37
2018-04-18T13:41:58.119Z,8.93
2018-04-18T13:44:27.289Z,9.00
2018-04-18T13:46:56.769Z,8.10
2018-04-18T13:49:26.008Z,12.67
2018-04-18T13:51:55.132Z,10.77
2018-04-18T13:54:24.557Z,9.67
2018-04-18T13:56:53.696Z,10.33
2018-04-18T13:59:22.817Z,8.80
2018-04-18T14:01:52.249Z,12.63
2018-04-18T14:04:21.508Z,15.63
2018-04-18T14:06:51.252Z,12.30
2018-04-18T14:09:20.798Z,12.73
2018-04-18T14:11:49.950Z,10.50
2018-04-18T14:14:19.067Z,9.57
2018-04-18T14:16:48.494Z,19.07
2018-04-18T14:19:17.626Z,12.43
2018-04-18T14:21:46.761Z,20.23
2018-04-18T14:24:16.289Z,18.13
2018-04-18T14:26:45.415Z,15.57
2018-04-18T14:29:14.537Z,13.67
2018-04-18T14:31:43.886Z,15.13
2018-04-18T14:34:13.009Z,13.07
2018-04-18T14:36:42.204Z,13.57
2018-04-18T14:39:11.650Z,15.97
2018-04-18T14:41:40.793Z,18.03
2018-04-18T14:44:09.978Z,14.40
2018-04-18T14:46:39.449Z,12.90
2018-04-18T14:49:08.671Z,16.07
2018-04-18T14:51:37.799Z,13.80
2018-04-18T14:54:07.235Z,15.87
2018-04-18T14:56:36.387Z,14.60
2018-04-18T14:59:05.504Z,17.97
2018-04-18T15:01:34.931Z,17.20
2018-04-18T15:04:04.046Z,15.90
2018-04-18T15:06:33.218Z,19.10
2018-04-18T15:09:02.746Z,17.60
2018-04-18T15:11:31.884Z,18.10
2018-04-18T15:14:01.023Z,20.93
2018-04-18T15:16:30.521Z,18.43
2018-04-18T15:18:59.719Z,17.90
2018-04-18T15:21:28.833Z,16.77
2018-04-18T15:23:58.337Z,18.37
2018-04-18T15:26:27.453Z,23.70
2018-04-18T15:28:56.574Z,22.20
2018-04-18T15:31:25.721Z,22.40
2018-04-18T15:33:54.878Z,23.27
2018-04-18T15:36:24.035Z,24.43
2018-04-18T15:38:53.152Z,20.40
2018-04-18T15:41:22.299Z,18.77
2018-04-18T15:43:51.527Z,19.50
2018-04-18T15:46:20.658Z,23.27
2018-04-18T15:48:49.775Z,17.70
2018-04-18T15:51:18.905Z,21.03
2018-04-18T15:53:48.374Z,20.40
2018-04-18T15:56:17.502Z,19.50
2018-04-18T15:58:46.629Z,19.77
2018-04-18T16:01:16.204Z,21.47
2018-04-18T16:03:45.337Z,16.87
2018-04-18T16:06:14.493Z,21.40
2018-04-18T16:08:43.894Z,17.37
2018-04-18T16:11:13.063Z,19.90
2018-04-18T16:13:42.808Z,18.00
2018-04-18T16:16:13.051Z,17.60
2018-04-18T16:18:42.274Z,17.13
2018-04-18T16:21:11.399Z,20.93
2018-04-18T16:23:40.534Z,21.67
2018-04-18T16:26:09.652Z,14.27
2018-04-18T16:28:38.779Z,22.13
2018-04-18T16:31:08.276Z,22.13
2018-04-18T16:33:37.409Z,17.60
2018-04-18T16:36:06.536Z,18.50
2018-04-18T16:38:35.669Z,18.90
2018-04-18T16:41:04.787Z,19.37
2018-04-18T16:43:33.918Z,18.10
2018-04-18T16:46:03.370Z,20.03
2018-04-18T16:48:32.485Z,25.27
2018-04-18T16:51:01.627Z,20.43
2018-04-18T16:53:30.890Z,21.70
2018-04-18T16:56:00.037Z,21.97
2018-04-18T16:58:29.156Z,18.07
2018-04-18T17:00:58.998Z,22.87
2018-04-18T17:03:28.125Z,20.03
2018-04-18T17:05:57.249Z,25.87
2018-04-18T17:08:26.488Z,20.87
2018-04-18T17:10:55.617Z,23.33
2018-04-18T17:13:24.741Z,25.60
2018-04-18T17:15:53.947Z,25.27
2018-04-18T17:18:23.061Z,26.60
2018-04-18T17:20:52.267Z,27.00
2018-04-18T17:23:21.769Z,26.30
2018-04-18T17:25:50.943Z,27.97
2018-04-18T17:28:20.055Z,25.13
2018-04-18T17:30:49.205Z,31.80
2018-04-18T17:33:18.341Z,33.93
2018-04-18T17:35:47.469Z,30.00
2018-04-18T17:38:17.032Z,27.83
2018-04-18T17:40:46.149Z,27.93
2018-04-18T17:43:17.258Z,28.83
2018-04-18T17:45:46.380Z,28.20
2018-04-18T17:48:15.586Z,27.20
2018-04-18T17:50:45.909Z,37.90
2018-04-18T17:53:15.039Z,29.20
2018-04-18T17:55:44.199Z,25.60
2018-04-18T17:58:14.001Z,26.13
2018-04-18T18:00:43.124Z,27.57
2018-04-18T18:03:12.534Z,28.63
2018-04-18T18:05:41.908Z,23.93
2018-04-18T18:08:11.034Z,27.67
2018-04-18T18:10:40.154Z,23.27
2018-04-18T18:13:09.298Z,29.13
2018-04-18T18:15:38.423Z,28.00
2018-04-18T18:18:07.557Z,28.40
2018-04-18T18:20:37.058Z,35.30
2018-04-18T18:23:06.186Z,27.10
2018-04-18T18:25:35.362Z,25.13
2018-04-18T18:28:04.497Z,26.87
2018-04-18T18:30:33.617Z,26.10
2018-04-18T18:33:02.782Z,28.30
2018-04-18T18:35:32.243Z,23.53
2018-04-18T18:38:01.416Z,22.60
2018-04-18T18:40:30.507Z,28.00
2018-04-18T18:43:00.250Z,23.63
2018-04-18T18:45:29.371Z,24.43
2018-04-18T18:47:58.511Z,21.03
2018-04-18T18:50:28.044Z,16.20
2018-04-18T18:52:57.177Z,16.97
2018-04-18T18:55:26.338Z,14.97
2018-04-18T18:57:55.465Z,18.30
2018-04-18T19:00:24.979Z,20.43
2018-04-18T19:02:54.146Z,17.87
2018-04-18T19:05:23.296Z,17.77
2018-04-18T19:07:52.423Z,17.13
2018-04-18T19:10:21.550Z,16.57
2018-04-18T19:12:51.230Z,16.50
2018-04-18T19:15:20.345Z,14.23
2018-04-18T19:17:49.474Z,20.77
2018-04-18T19:20:18.933Z,16.60
2018-04-18T19:22:48.056Z,19.57
2018-04-18T19:25:17.180Z,20.37
2018-04-18T19:27:46.623Z,17.60
2018-04-18T19:30:15.748Z,19.30
2018-04-18T19:32:44.895Z,19.07
2018-04-18T19:35:14.453Z,21.53
2018-04-18T19:37:44.305Z,17.97
2018-04-18T19:40:14.175Z,19.03
2018-04-18T19:42:43.296Z,18.37
2018-04-18T19:45:12.412Z,17.37
2018-04-18T19:47:41.856Z,20.90
2018-04-18T19:50:10.977Z,20.40
2018-04-18T19:52:40.126Z,18.73
2018-04-18T19:55:09.622Z,16.73
2018-04-18T19:57:38.766Z,17.17
2018-04-18T20:00:08.365Z,16.50
2018-04-18T20:02:37.840Z,19.83
2018-04-18T20:05:06.978Z,17.40
2018-04-18T20:07:36.164Z,19.90
2018-04-18T20:10:05.537Z,16.73
2018-04-18T20:12:34.681Z,18.17
2018-04-18T20:15:03.802Z,21.73
2018-04-18T20:17:33.215Z,22.10
2018-04-18T20:20:02.434Z,20.87
2018-04-18T20:22:31.701Z,19.17
2018-04-18T20:25:01.110Z,21.83
2018-04-18T20:27:30.246Z,26.00
2018-04-18T20:29:59.449Z,24.07
2018-04-18T20:32:28.944Z,20.93
2018-04-18T20:34:58.065Z,24.70
2018-04-18T20:37:27.982Z,20.70
2018-04-18T20:39:57.467Z,18.50
2018-04-18T20:42:26.786Z,16.97
2018-04-18T20:44:55.977Z,23.53
2018-04-18T20:47:25.530Z,21.70
2018-04-18T20:49:54.674Z,23.57
2018-04-18T20:52:24.059Z,18.53
2018-04-18T20:54:53.544Z,21.03
2018-04-18T20:57:22.769Z,19.23
2018-04-18T20:59:51.890Z,26.60
2018-04-18T21:02:21.325Z,22.50
2018-04-18T21:04:50.477Z,19.77
2018-04-18T21:07:19.604Z,18.03
2018-04-18T21:09:49.032Z,17.33
2018-04-18T21:12:18.145Z,20.57
2018-04-18T21:14:47.277Z,21.37
2018-04-18T21:17:16.433Z,17.90
2018-04-18T21:19:45.581Z,23.33
2018-04-18T21:22:14.801Z,21.17
2018-04-18T21:24:44.309Z,25.17
2018-04-18T21:27:13.431Z,21.30
2018-04-18T21:29:42.563Z,20.13
2018-04-18T21:32:12.023Z,20.90
2018-04-18T21:34:41.157Z,19.17
2018-04-18T21:37:10.283Z,25.83
2018-04-18T21:39:39.416Z,23.83
2018-04-18T21:42:08.630Z,22.70
2018-04-18T21:44:37.774Z,18.60
2018-04-18T21:47:07.201Z,22.57
2018-04-18T21:49:36.344Z,20.77
2018-04-18T21:52:05.464Z,19.47
2018-04-18T21:54:35.176Z,18.67
2018-04-18T21:57:04.345Z,18.13
2018-04-18T21:59:33.542Z,19.40
2018-04-18T22:02:03.033Z,21.63
2018-04-18T22:04:32.147Z,21.00
2018-04-18T22:07:01.274Z,19.20
2018-04-18T22:09:30.662Z,20.97
2018-04-18T22:11:59.814Z,21.27
2018-04-18T22:14:28.961Z,19.50
2018-04-18T22:16:58.393Z,21.27
2018-04-18T22:19:27.507Z,19.47
2018-04-18T22:21:56.633Z,26.13
2018-04-18T22:24:26.081Z,20.23
2018-04-18T22:26:55.310Z,25.63
2018-04-18T22:29:24.419Z,19.57
2018-04-18T22:31:53.898Z,19.83
2018-04-18T22:34:23.029Z,26.20
2018-04-18T22:36:52.274Z,25.40
2018-04-18T22:39:21.789Z,23.87
2018-04-18T22:41:50.958Z,27.10
2018-04-18T22:44:20.077Z,29.27
2018-04-18T22:46:49.563Z,25.27
2018-04-18T22:49:18.687Z,28.23
2018-04-18T22:51:47.817Z,23.47
2018-04-18T22:54:16.949Z,27.80
2018-04-18T22:56:46.086Z,25.77
2018-04-18T22:59:15.226Z,27.90
2018-04-18T23:01:44.650Z,29.10
2018-04-18T23:04:13.773Z,29.60
2018-04-18T23:06:42.975Z,28.23
2018-04-18T23:09:12.175Z,26.10
2018-04-18T23:11:41.289Z,25.80
2018-04-18T23:14:10.407Z,33.13
2018-04-18T23:16:39.541Z,27.50
2018-04-18T23:19:08.670Z,31.83
2018-04-18T23:21:37.822Z,29.30
2018-04-18T23:24:06.966Z,32.43
2018-04-18T23:26:36.077Z,31.93
2018-04-18T23:29:05.227Z,27.03
2018-04-18T23:31:34.713Z,38.03
2018-04-18T23:34:03.945Z,30.27
2018-04-18T23:36:33.063Z,30.80
2018-04-18T23:39:02.475Z,31.97
2018-04-18T23:41:31.601Z,28.40
2018-04-18T23:44:00.729Z,31.33
2018-04-18T23:46:29.980Z,29.83
2018-04-18T23:48:59.119Z,33.53
2018-04-18T23:51:28.257Z,31.47
2018-04-18T23:53:57.393Z,30.80
2018-04-18T23:56:26.508Z,30.47
2018-04-18T23:58:55.709Z,29.40
